タシュケント の空港の天気 - METARとTAF

タシケント空港 ( UTTT / TAS ) - ウズベキスタン タシュケント
飛行場実況気象(Metar)
観測時間10/22 16:00 UZT (10/22 11:00 UTC)
風向・風速北北西 4m/s
視程10km以上
天気現象
なし
気温15℃
湿度36%
気圧1022hPa
METARUTTT 221100Z 33008KT 290V360 CAVOK 15/00 Q1022 R08R/CLRD70 NOSIG
過去の天気等 Google飛行場航空写真 Wunderground天気予報

過去48時間のMETAR

飛行場予報(TAF)
発表時間: 10/22 16:00 UZT (10/22 11:00 UTC)
予報対象時間: 22日17時 UZT ~ 23日17時 UZT
風向・風速北西 5m/s
視程7000m
少しの積乱雲 雲底高度 1520m
全天の8割程度の雲 雲底高度 3050m
22日23時 UZT ~ 23日9時 UZT に一時的に
風向・風速西 8m/s
視程3000m
天気現象弱いしゅう雨 もや
全天の8割程度の積乱雲 雲底高度 910m
23日9時 UZT ~ 23日17時 UZT に一時的に
天気現象弱いしゅう雨
全天の4割程度の雲 雲底高度 300m
全天の8割程度の積乱雲 雲底高度 910m
TAF UTTT 221100Z 2212/2312 32010KT 7000 FEW050CB BKN100
TEMPO 2218/2304 28015KT 3000 -SHRA BR BKN030CB
TEMPO 2304/2312 -SHRA SCT010 BKN030CB